sensor_id;sensor_type;location;lat;lon;timestamp;pressure;altitude;pressure_sealevel;temperature;humidity
65758;BME280;52495;52.208;5.158;2023-02-08T00:01:33;103930.88;;;-0.19;83.67
65758;BME280;52495;52.208;5.158;2023-02-08T00:04:00;103927.59;;;-0.18;84.00
65758;BME280;52495;52.208;5.158;2023-02-08T00:06:28;103928.56;;;-0.16;83.85
65758;BME280;52495;52.208;5.158;2023-02-08T00:08:55;103930.47;;;-0.13;83.66
65758;BME280;52495;52.208;5.158;2023-02-08T00:11:22;103929.28;;;-0.06;83.18
65758;BME280;52495;52.208;5.158;2023-02-08T00:13:49;103924.38;;;-0.15;83.88
65758;BME280;52495;52.208;5.158;2023-02-08T00:16:16;103935.41;;;-0.14;84.44
65758;BME280;52495;52.208;5.158;2023-02-08T00:18:43;103927.94;;;-0.13;83.93
65758;BME280;52495;52.208;5.158;2023-02-08T00:21:11;103924.72;;;-0.10;84.07
65758;BME280;52495;52.208;5.158;2023-02-08T00:23:40;103917.78;;;-0.13;84.13
65758;BME280;52495;52.208;5.158;2023-02-08T00:26:08;103905.84;;;-0.14;83.80
65758;BME280;52495;52.208;5.158;2023-02-08T00:28:35;103909.16;;;-0.15;83.94
65758;BME280;52495;52.208;5.158;2023-02-08T00:31:03;103908.03;;;-0.19;83.48
65758;BME280;52495;52.208;5.158;2023-02-08T00:33:30;103904.84;;;-0.16;84.21
65758;BME280;52495;52.208;5.158;2023-02-08T00:35:58;103898.56;;;-0.09;83.36
65758;BME280;52495;52.208;5.158;2023-02-08T00:38:25;103888.47;;;-0.20;83.81
65758;BME280;52495;52.208;5.158;2023-02-08T00:40:53;103892.31;;;-0.25;84.04
65758;BME280;52495;52.208;5.158;2023-02-08T00:43:20;103893.75;;;-0.28;83.40
65758;BME280;52495;52.208;5.158;2023-02-08T00:45:52;103897.66;;;-0.32;83.79
65758;BME280;52495;52.208;5.158;2023-02-08T00:48:19;103895.69;;;-0.36;83.08
65758;BME280;52495;52.208;5.158;2023-02-08T00:50:56;103892.56;;;-0.44;82.81
65758;BME280;52495;52.208;5.158;2023-02-08T00:53:23;103895.63;;;-0.48;83.36
65758;BME280;52495;52.208;5.158;2023-02-08T00:55:50;103891.72;;;-0.55;82.70
65758;BME280;52495;52.208;5.158;2023-02-08T00:58:18;103892.13;;;-0.60;83.68
65758;BME280;52495;52.208;5.158;2023-02-08T01:00:45;103898.84;;;-0.61;83.14
65758;BME280;52495;52.208;5.158;2023-02-08T01:03:12;103890.88;;;-0.66;83.34
65758;BME280;52495;52.208;5.158;2023-02-08T01:05:39;103897.38;;;-0.69;83.36
65758;BME280;52495;52.208;5.158;2023-02-08T01:08:05;103895.19;;;-0.75;82.84
65758;BME280;52495;52.208;5.158;2023-02-08T01:10:32;103898.28;;;-0.79;82.84
65758;BME280;52495;52.208;5.158;2023-02-08T01:12:59;103900.81;;;-0.79;83.27
65758;BME280;52495;52.208;5.158;2023-02-08T01:15:29;103901.44;;;-0.82;83.17
65758;BME280;52495;52.208;5.158;2023-02-08T01:17:56;103901.31;;;-0.83;83.50
65758;BME280;52495;52.208;5.158;2023-02-08T01:20:24;103896.78;;;-0.87;83.66
65758;BME280;52495;52.208;5.158;2023-02-08T01:22:51;103895.75;;;-0.89;83.11
65758;BME280;52495;52.208;5.158;2023-02-08T01:25:18;103900.72;;;-0.91;83.36
65758;BME280;52495;52.208;5.158;2023-02-08T01:27:44;103901.22;;;-0.95;83.09
65758;BME280;52495;52.208;5.158;2023-02-08T01:30:12;103902.00;;;-0.96;82.85
65758;BME280;52495;52.208;5.158;2023-02-08T01:32:40;103895.53;;;-1.03;82.65
65758;BME280;52495;52.208;5.158;2023-02-08T01:35:07;103895.16;;;-0.97;83.16
65758;BME280;52495;52.208;5.158;2023-02-08T01:37:36;103896.66;;;-0.99;82.78
65758;BME280;52495;52.208;5.158;2023-02-08T01:40:03;103899.75;;;-1.03;83.03
65758;BME280;52495;52.208;5.158;2023-02-08T01:42:30;103885.91;;;-1.07;83.10
65758;BME280;52495;52.208;5.158;2023-02-08T01:45:20;103890.72;;;-1.10;83.23
65758;BME280;52495;52.208;5.158;2023-02-08T01:47:53;103887.44;;;-1.09;83.82
65758;BME280;52495;52.208;5.158;2023-02-08T01:50:23;103892.66;;;-1.08;83.23
65758;BME280;52495;52.208;5.158;2023-02-08T01:52:52;103882.25;;;-1.11;83.37
65758;BME280;52495;52.208;5.158;2023-02-08T01:55:21;103879.59;;;-1.12;82.77
65758;BME280;52495;52.208;5.158;2023-02-08T01:57:51;103880.84;;;-1.07;82.64
65758;BME280;52495;52.208;5.158;2023-02-08T02:00:21;103885.81;;;-1.09;82.75
65758;BME280;52495;52.208;5.158;2023-02-08T02:02:53;103887.97;;;-1.13;82.91
65758;BME280;52495;52.208;5.158;2023-02-08T02:05:25;103883.78;;;-1.13;83.09
65758;BME280;52495;52.208;5.158;2023-02-08T02:07:54;103878.44;;;-1.16;83.04
65758;BME280;52495;52.208;5.158;2023-02-08T02:10:25;103889.25;;;-1.18;82.79
65758;BME280;52495;52.208;5.158;2023-02-08T02:12:54;103888.59;;;-1.16;82.72
65758;BME280;52495;52.208;5.158;2023-02-08T02:15:22;103889.50;;;-1.15;82.84
65758;BME280;52495;52.208;5.158;2023-02-08T02:17:48;103887.88;;;-1.25;82.36
65758;BME280;52495;52.208;5.158;2023-02-08T02:20:23;103885.59;;;-1.22;82.52
65758;BME280;52495;52.208;5.158;2023-02-08T02:26:26;103884.97;;;-1.30;82.22
65758;BME280;52495;52.208;5.158;2023-02-08T02:32:22;103877.09;;;-1.33;82.88
65758;BME280;52495;52.208;5.158;2023-02-08T02:34:57;103871.38;;;-1.30;82.06
65758;BME280;52495;52.208;5.158;2023-02-08T02:37:38;103865.06;;;-1.35;82.40
65758;BME280;52495;52.208;5.158;2023-02-08T02:40:13;103863.56;;;-1.44;82.40
65758;BME280;52495;52.208;5.158;2023-02-08T02:42:51;103864.97;;;-1.47;83.23
65758;BME280;52495;52.208;5.158;2023-02-08T02:45:47;103867.72;;;-1.44;82.63
65758;BME280;52495;52.208;5.158;2023-02-08T02:48:21;103856.81;;;-1.43;83.06
65758;BME280;52495;52.208;5.158;2023-02-08T02:50:52;103851.53;;;-1.46;82.92
65758;BME280;52495;52.208;5.158;2023-02-08T02:53:27;103857.22;;;-1.49;82.98
65758;BME280;52495;52.208;5.158;2023-02-08T02:55:59;103850.63;;;-1.47;82.67
65758;BME280;52495;52.208;5.158;2023-02-08T02:58:30;103847.72;;;-1.51;82.59
65758;BME280;52495;52.208;5.158;2023-02-08T03:00:58;103849.91;;;-1.56;82.27
65758;BME280;52495;52.208;5.158;2023-02-08T03:03:29;103855.47;;;-1.60;82.36
65758;BME280;52495;52.208;5.158;2023-02-08T03:05:59;103857.75;;;-1.63;82.75
65758;BME280;52495;52.208;5.158;2023-02-08T03:11:29;103855.84;;;-1.66;82.60
65758;BME280;52495;52.208;5.158;2023-02-08T03:14:03;103860.66;;;-1.69;82.94
65758;BME280;52495;52.208;5.158;2023-02-08T03:16:45;103859.75;;;-1.70;82.56
65758;BME280;52495;52.208;5.158;2023-02-08T03:19:23;103866.47;;;-1.70;82.76
65758;BME280;52495;52.208;5.158;2023-02-08T03:21:56;103858.88;;;-1.70;82.92
65758;BME280;52495;52.208;5.158;2023-02-08T03:24:27;103860.50;;;-1.71;82.44
65758;BME280;52495;52.208;5.158;2023-02-08T03:26:59;103857.97;;;-1.71;83.55
65758;BME280;52495;52.208;5.158;2023-02-08T03:29:37;103863.31;;;-1.68;83.36
65758;BME280;52495;52.208;5.158;2023-02-08T03:32:08;103860.91;;;-1.66;82.63
65758;BME280;52495;52.208;5.158;2023-02-08T03:34:44;103863.44;;;-1.66;82.72
65758;BME280;52495;52.208;5.158;2023-02-08T03:37:16;103862.44;;;-1.68;82.39
65758;BME280;52495;52.208;5.158;2023-02-08T03:39:46;103849.50;;;-1.71;82.42
65758;BME280;52495;52.208;5.158;2023-02-08T03:42:18;103852.81;;;-1.72;82.84
65758;BME280;52495;52.208;5.158;2023-02-08T03:44:52;103859.38;;;-1.74;82.07
65758;BME280;52495;52.208;5.158;2023-02-08T03:47:24;103855.84;;;-1.76;82.23
65758;BME280;52495;52.208;5.158;2023-02-08T03:49:55;103856.72;;;-1.86;82.18
65758;BME280;52495;52.208;5.158;2023-02-08T03:52:25;103857.75;;;-1.84;82.03
65758;BME280;52495;52.208;5.158;2023-02-08T03:54:54;103853.97;;;-1.89;82.53
65758;BME280;52495;52.208;5.158;2023-02-08T03:57:25;103862.16;;;-1.92;81.92
65758;BME280;52495;52.208;5.158;2023-02-08T03:59:56;103861.28;;;-1.92;81.73
65758;BME280;52495;52.208;5.158;2023-02-08T04:02:27;103863.56;;;-1.95;81.98
65758;BME280;52495;52.208;5.158;2023-02-08T04:04:58;103866.97;;;-1.95;82.03
65758;BME280;52495;52.208;5.158;2023-02-08T04:07:26;103870.78;;;-2.00;82.31
65758;BME280;52495;52.208;5.158;2023-02-08T04:09:52;103871.38;;;-2.03;82.36
65758;BME280;52495;52.208;5.158;2023-02-08T04:12:19;103863.41;;;-2.07;82.51
65758;BME280;52495;52.208;5.158;2023-02-08T04:14:46;103869.75;;;-2.02;82.22
65758;BME280;52495;52.208;5.158;2023-02-08T04:17:13;103862.94;;;-2.03;82.44
65758;BME280;52495;52.208;5.158;2023-02-08T04:19:39;103861.66;;;-2.08;82.45
65758;BME280;52495;52.208;5.158;2023-02-08T04:22:08;103857.34;;;-2.09;82.71
65758;BME280;52495;52.208;5.158;2023-02-08T04:24:35;103855.72;;;-2.09;82.22
65758;BME280;52495;52.208;5.158;2023-02-08T04:27:01;103854.81;;;-2.09;82.25
65758;BME280;52495;52.208;5.158;2023-02-08T04:29:28;103854.69;;;-2.11;82.01
65758;BME280;52495;52.208;5.158;2023-02-08T04:31:55;103850.00;;;-2.17;82.10
65758;BME280;52495;52.208;5.158;2023-02-08T04:34:23;103851.03;;;-2.15;82.61
65758;BME280;52495;52.208;5.158;2023-02-08T04:36:50;103846.72;;;-2.16;81.44
65758;BME280;52495;52.208;5.158;2023-02-08T04:39:18;103843.28;;;-2.16;82.09
65758;BME280;52495;52.208;5.158;2023-02-08T04:41:45;103847.22;;;-2.20;81.39
65758;BME280;52495;52.208;5.158;2023-02-08T04:44:11;103854.03;;;-2.19;81.70
65758;BME280;52495;52.208;5.158;2023-02-08T04:46:39;103844.69;;;-2.20;82.09
65758;BME280;52495;52.208;5.158;2023-02-08T04:49:05;103851.25;;;-2.22;81.46
65758;BME280;52495;52.208;5.158;2023-02-08T04:51:35;103842.63;;;-2.24;82.15
65758;BME280;52495;52.208;5.158;2023-02-08T04:54:02;103835.94;;;-2.23;82.36
65758;BME280;52495;52.208;5.158;2023-02-08T04:56:30;103847.06;;;-2.21;82.36
65758;BME280;52495;52.208;5.158;2023-02-08T04:58:56;103845.53;;;-2.19;82.25
65758;BME280;52495;52.208;5.158;2023-02-08T05:01:23;103837.97;;;-2.19;82.69
65758;BME280;52495;52.208;5.158;2023-02-08T05:03:50;103838.09;;;-2.18;82.30
65758;BME280;52495;52.208;5.158;2023-02-08T05:06:17;103840.91;;;-2.15;82.31
65758;BME280;52495;52.208;5.158;2023-02-08T05:08:44;103830.78;;;-2.15;82.69
65758;BME280;52495;52.208;5.158;2023-02-08T05:11:10;103835.69;;;-2.16;82.37
65758;BME280;52495;52.208;5.158;2023-02-08T05:13:38;103841.50;;;-2.17;81.68
65758;BME280;52495;52.208;5.158;2023-02-08T05:16:05;103836.31;;;-2.19;82.27
65758;BME280;52495;52.208;5.158;2023-02-08T05:18:32;103838.97;;;-2.17;82.01
65758;BME280;52495;52.208;5.158;2023-02-08T05:21:00;103836.59;;;-2.16;82.33
65758;BME280;52495;52.208;5.158;2023-02-08T05:23:28;103822.91;;;-2.18;81.92
65758;BME280;52495;52.208;5.158;2023-02-08T05:25:57;103816.94;;;-2.18;81.79
65758;BME280;52495;52.208;5.158;2023-02-08T05:28:24;103820.38;;;-2.18;81.65
65758;BME280;52495;52.208;5.158;2023-02-08T05:30:53;103820.13;;;-2.21;82.04
65758;BME280;52495;52.208;5.158;2023-02-08T05:33:20;103819.47;;;-2.18;81.81
65758;BME280;52495;52.208;5.158;2023-02-08T05:35:47;103820.88;;;-2.22;81.48
65758;BME280;52495;52.208;5.158;2023-02-08T05:38:13;103816.81;;;-2.30;81.36
65758;BME280;52495;52.208;5.158;2023-02-08T05:40:40;103816.94;;;-2.29;81.39
65758;BME280;52495;52.208;5.158;2023-02-08T05:43:07;103822.75;;;-2.30;82.18
65758;BME280;52495;52.208;5.158;2023-02-08T05:45:33;103818.47;;;-2.31;81.38
65758;BME280;52495;52.208;5.158;2023-02-08T05:48:02;103818.19;;;-2.34;81.27
65758;BME280;52495;52.208;5.158;2023-02-08T05:50:29;103821.63;;;-2.33;82.10
65758;BME280;52495;52.208;5.158;2023-02-08T05:52:56;103816.69;;;-2.32;82.12
65758;BME280;52495;52.208;5.158;2023-02-08T05:55:23;103824.78;;;-2.36;81.92
65758;BME280;52495;52.208;5.158;2023-02-08T05:57:51;103824.88;;;-2.45;82.24
65758;BME280;52495;52.208;5.158;2023-02-08T06:00:18;103827.41;;;-2.45;82.29
65758;BME280;52495;52.208;5.158;2023-02-08T06:02:45;103823.09;;;-2.46;82.26
65758;BME280;52495;52.208;5.158;2023-02-08T06:05:13;103812.88;;;-2.47;82.34
65758;BME280;52495;52.208;5.158;2023-02-08T06:07:40;103806.03;;;-2.48;81.90
65758;BME280;52495;52.208;5.158;2023-02-08T06:10:07;103822.59;;;-2.52;81.96
65758;BME280;52495;52.208;5.158;2023-02-08T06:12:34;103814.75;;;-2.55;81.34
65758;BME280;52495;52.208;5.158;2023-02-08T06:15:03;103828.25;;;-2.54;82.28
65758;BME280;52495;52.208;5.158;2023-02-08T06:17:29;103821.56;;;-2.54;82.32
65758;BME280;52495;52.208;5.158;2023-02-08T06:19:56;103824.97;;;-2.53;82.32
65758;BME280;52495;52.208;5.158;2023-02-08T06:22:24;103817.66;;;-2.50;82.64
65758;BME280;52495;52.208;5.158;2023-02-08T06:24:51;103816.16;;;-2.48;82.78
65758;BME280;52495;52.208;5.158;2023-02-08T06:27:18;103820.44;;;-2.47;82.34
65758;BME280;52495;52.208;5.158;2023-02-08T06:29:45;103826.38;;;-2.47;82.39
65758;BME280;52495;52.208;5.158;2023-02-08T06:32:11;103825.63;;;-2.46;82.68
65758;BME280;52495;52.208;5.158;2023-02-08T06:34:47;103824.38;;;-2.40;82.23
65758;BME280;52495;52.208;5.158;2023-02-08T06:37:15;103833.63;;;-2.41;82.64
65758;BME280;52495;52.208;5.158;2023-02-08T06:39:43;103838.16;;;-2.37;82.44
65758;BME280;52495;52.208;5.158;2023-02-08T06:42:10;103838.31;;;-2.35;82.19
65758;BME280;52495;52.208;5.158;2023-02-08T06:44:37;103833.25;;;-2.35;82.53
65758;BME280;52495;52.208;5.158;2023-02-08T06:47:04;103826.44;;;-2.36;82.02
65758;BME280;52495;52.208;5.158;2023-02-08T06:49:30;103825.94;;;-2.32;82.32
65758;BME280;52495;52.208;5.158;2023-02-08T06:51:57;103820.72;;;-2.34;82.05
65758;BME280;52495;52.208;5.158;2023-02-08T06:54:24;103815.28;;;-2.38;81.77
65758;BME280;52495;52.208;5.158;2023-02-08T06:56:52;103800.00;;;-2.40;81.70
65758;BME280;52495;52.208;5.158;2023-02-08T06:59:19;103805.06;;;-2.40;81.30
65758;BME280;52495;52.208;5.158;2023-02-08T07:01:46;103806.56;;;-2.42;81.20
65758;BME280;52495;52.208;5.158;2023-02-08T07:04:12;103810.59;;;-2.44;81.39
65758;BME280;52495;52.208;5.158;2023-02-08T07:06:39;103811.34;;;-2.45;81.28
65758;BME280;52495;52.208;5.158;2023-02-08T07:09:07;103806.16;;;-2.47;81.17
65758;BME280;52495;52.208;5.158;2023-02-08T07:11:34;103805.38;;;-2.46;81.65
65758;BME280;52495;52.208;5.158;2023-02-08T07:14:02;103813.63;;;-2.48;81.30
65758;BME280;52495;52.208;5.158;2023-02-08T07:16:29;103814.38;;;-2.49;81.17
65758;BME280;52495;52.208;5.158;2023-02-08T07:18:56;103810.06;;;-2.50;81.45
65758;BME280;52495;52.208;5.158;2023-02-08T07:21:22;103816.03;;;-2.50;81.96
65758;BME280;52495;52.208;5.158;2023-02-08T07:23:50;103812.97;;;-2.46;81.72
65758;BME280;52495;52.208;5.158;2023-02-08T07:26:16;103809.84;;;-2.43;82.14
65758;BME280;52495;52.208;5.158;2023-02-08T07:28:43;103811.84;;;-2.39;82.29
65758;BME280;52495;52.208;5.158;2023-02-08T07:31:14;103810.22;;;-2.38;81.92
65758;BME280;52495;52.208;5.158;2023-02-08T07:33:41;103808.56;;;-2.38;81.99
65758;BME280;52495;52.208;5.158;2023-02-08T07:36:09;103811.34;;;-2.35;81.79
65758;BME280;52495;52.208;5.158;2023-02-08T07:38:36;103813.41;;;-2.31;81.97
65758;BME280;52495;52.208;5.158;2023-02-08T07:41:05;103808.44;;;-2.29;82.51
65758;BME280;52495;52.208;5.158;2023-02-08T07:43:32;103801.13;;;-2.26;81.84
65758;BME280;52495;52.208;5.158;2023-02-08T07:49:14;103805.47;;;-2.15;82.75
65758;BME280;52495;52.208;5.158;2023-02-08T07:51:41;103804.19;;;-2.09;82.31
65758;BME280;52495;52.208;5.158;2023-02-08T07:54:07;103802.91;;;-2.04;82.17
65758;BME280;52495;52.208;5.158;2023-02-08T07:56:34;103791.53;;;-1.99;82.14
65758;BME280;52495;52.208;5.158;2023-02-08T07:59:01;103790.91;;;-1.96;82.52
65758;BME280;52495;52.208;5.158;2023-02-08T08:01:28;103794.06;;;-1.89;81.78
65758;BME280;52495;52.208;5.158;2023-02-08T08:03:55;103786.72;;;-1.86;82.24
65758;BME280;52495;52.208;5.158;2023-02-08T08:06:23;103795.94;;;-1.76;82.10
65758;BME280;52495;52.208;5.158;2023-02-08T08:08:50;103790.25;;;-1.73;82.32
65758;BME280;52495;52.208;5.158;2023-02-08T08:11:19;103790.84;;;-1.65;81.56
65758;BME280;52495;52.208;5.158;2023-02-08T08:13:46;103790.47;;;-1.60;81.69
65758;BME280;52495;52.208;5.158;2023-02-08T08:16:13;103799.22;;;-1.56;81.31
65758;BME280;52495;52.208;5.158;2023-02-08T08:18:40;103795.94;;;-1.55;80.95
65758;BME280;52495;52.208;5.158;2023-02-08T08:21:06;103789.81;;;-1.47;81.49
65758;BME280;52495;52.208;5.158;2023-02-08T08:23:35;103788.78;;;-1.39;80.94
65758;BME280;52495;52.208;5.158;2023-02-08T08:26:06;103786.72;;;-1.32;80.83
65758;BME280;52495;52.208;5.158;2023-02-08T08:28:33;103793.16;;;-1.26;80.47
65758;BME280;52495;52.208;5.158;2023-02-08T08:31:09;103789.59;;;-1.17;80.25
65758;BME280;52495;52.208;5.158;2023-02-08T08:37:03;103789.91;;;-1.02;80.55
65758;BME280;52495;52.208;5.158;2023-02-08T08:39:31;103793.72;;;-0.97;80.17
65758;BME280;52495;52.208;5.158;2023-02-08T08:41:59;103785.56;;;-0.93;80.35
65758;BME280;52495;52.208;5.158;2023-02-08T08:44:28;103782.63;;;-0.87;79.94
65758;BME280;52495;52.208;5.158;2023-02-08T08:47:12;103776.38;;;-0.81;79.57
65758;BME280;52495;52.208;5.158;2023-02-08T08:52:45;103773.38;;;-0.65;79.17
65758;BME280;52495;52.208;5.158;2023-02-08T08:55:13;103776.03;;;-0.63;79.26
65758;BME280;52495;52.208;5.158;2023-02-08T08:57:39;103781.94;;;-0.52;79.03
65758;BME280;52495;52.208;5.158;2023-02-08T09:00:09;103778.53;;;-0.41;78.61
65758;BME280;52495;52.208;5.158;2023-02-08T09:02:39;103775.38;;;-0.38;78.45
65758;BME280;52495;52.208;5.158;2023-02-08T09:05:07;103777.47;;;-0.33;78.10
65758;BME280;52495;52.208;5.158;2023-02-08T09:07:33;103777.97;;;-0.26;78.57
65758;BME280;52495;52.208;5.158;2023-02-08T09:10:03;103777.63;;;-0.19;78.74
65758;BME280;52495;52.208;5.158;2023-02-08T09:12:36;103781.75;;;-0.09;77.97
65758;BME280;52495;52.208;5.158;2023-02-08T09:15:03;103772.91;;;-0.03;78.36
65758;BME280;52495;52.208;5.158;2023-02-08T09:17:30;103773.50;;;0.05;78.06
65758;BME280;52495;52.208;5.158;2023-02-08T09:19:57;103772.41;;;0.13;77.70
65758;BME280;52495;52.208;5.158;2023-02-08T09:22:24;103772.31;;;0.24;77.79
65758;BME280;52495;52.208;5.158;2023-02-08T09:24:51;103775.16;;;0.28;77.22
65758;BME280;52495;52.208;5.158;2023-02-08T09:27:18;103782.72;;;0.39;76.52
65758;BME280;52495;52.208;5.158;2023-02-08T09:29:46;103776.72;;;0.38;75.40
65758;BME280;52495;52.208;5.158;2023-02-08T09:32:13;103779.19;;;0.49;75.59
65758;BME280;52495;52.208;5.158;2023-02-08T09:34:40;103780.59;;;0.57;75.26
65758;BME280;52495;52.208;5.158;2023-02-08T09:37:06;103787.91;;;0.64;74.63
65758;BME280;52495;52.208;5.158;2023-02-08T09:39:33;103787.69;;;0.73;74.34
65758;BME280;52495;52.208;5.158;2023-02-08T09:42:34;103787.22;;;0.79;73.23
65758;BME280;52495;52.208;5.158;2023-02-08T09:45:25;103787.31;;;0.92;73.16
65758;BME280;52495;52.208;5.158;2023-02-08T09:47:59;103774.47;;;1.02;73.00
65758;BME280;52495;52.208;5.158;2023-02-08T09:50:32;103772.47;;;1.10;72.61
65758;BME280;52495;52.208;5.158;2023-02-08T09:53:03;103768.88;;;1.20;72.31
65758;BME280;52495;52.208;5.158;2023-02-08T09:55:36;103775.41;;;1.28;71.61
65758;BME280;52495;52.208;5.158;2023-02-08T09:58:11;103771.50;;;1.33;70.35
65758;BME280;52495;52.208;5.158;2023-02-08T10:00:46;103773.03;;;1.43;70.60
65758;BME280;52495;52.208;5.158;2023-02-08T10:03:26;103774.63;;;1.55;69.82
65758;BME280;52495;52.208;5.158;2023-02-08T10:05:56;103771.03;;;1.64;69.64
65758;BME280;52495;52.208;5.158;2023-02-08T10:08:23;103771.56;;;1.72;69.13
65758;BME280;52495;52.208;5.158;2023-02-08T10:10:53;103779.91;;;1.83;69.39
65758;BME280;52495;52.208;5.158;2023-02-08T10:13:48;103771.31;;;1.94;68.39
65758;BME280;52495;52.208;5.158;2023-02-08T10:16:33;103783.50;;;2.12;68.92
65758;BME280;52495;52.208;5.158;2023-02-08T10:19:11;103788.91;;;2.17;68.29
65758;BME280;52495;52.208;5.158;2023-02-08T10:21:54;103787.75;;;2.25;66.84
65758;BME280;52495;52.208;5.158;2023-02-08T10:24:40;103788.72;;;2.27;64.98
65758;BME280;52495;52.208;5.158;2023-02-08T10:27:13;103791.00;;;2.36;64.97
65758;BME280;52495;52.208;5.158;2023-02-08T10:30:01;103790.59;;;2.43;65.22
65758;BME280;52495;52.208;5.158;2023-02-08T10:32:49;103791.19;;;2.52;65.66
65758;BME280;52495;52.208;5.158;2023-02-08T10:35:24;103785.03;;;2.62;65.40
65758;BME280;52495;52.208;5.158;2023-02-08T10:37:52;103790.59;;;2.70;64.68
65758;BME280;52495;52.208;5.158;2023-02-08T10:40:29;103792.84;;;2.79;64.64
65758;BME280;52495;52.208;5.158;2023-02-08T10:43:04;103789.03;;;2.85;63.54
65758;BME280;52495;52.208;5.158;2023-02-08T10:45:35;103788.13;;;2.98;63.88
65758;BME280;52495;52.208;5.158;2023-02-08T10:48:13;103779.25;;;3.07;62.97
65758;BME280;52495;52.208;5.158;2023-02-08T10:50:42;103777.34;;;3.17;63.93
65758;BME280;52495;52.208;5.158;2023-02-08T10:53:14;103776.13;;;3.26;63.40
65758;BME280;52495;52.208;5.158;2023-02-08T10:55:42;103773.97;;;3.32;61.90
65758;BME280;52495;52.208;5.158;2023-02-08T10:58:15;103764.13;;;3.38;61.48
65758;BME280;52495;52.208;5.158;2023-02-08T11:00:43;103767.16;;;3.46;61.14
65758;BME280;52495;52.208;5.158;2023-02-08T11:03:16;103768.41;;;3.53;58.99
65758;BME280;52495;52.208;5.158;2023-02-08T11:05:44;103758.50;;;3.59;59.60
65758;BME280;52495;52.208;5.158;2023-02-08T11:08:12;103749.56;;;3.66;59.26
65758;BME280;52495;52.208;5.158;2023-02-08T11:10:43;103754.16;;;3.71;58.59
65758;BME280;52495;52.208;5.158;2023-02-08T11:13:16;103752.91;;;3.79;57.67
65758;BME280;52495;52.208;5.158;2023-02-08T11:15:45;103758.56;;;3.89;58.46
65758;BME280;52495;52.208;5.158;2023-02-08T11:18:19;103753.09;;;3.98;58.78
65758;BME280;52495;52.208;5.158;2023-02-08T11:20:49;103739.88;;;4.05;58.21
65758;BME280;52495;52.208;5.158;2023-02-08T11:23:22;103741.28;;;4.15;57.58
65758;BME280;52495;52.208;5.158;2023-02-08T11:25:50;103733.97;;;4.21;57.38
65758;BME280;52495;52.208;5.158;2023-02-08T11:28:24;103738.47;;;4.25;56.20
65758;BME280;52495;52.208;5.158;2023-02-08T11:30:59;103735.34;;;4.31;54.31
65758;BME280;52495;52.208;5.158;2023-02-08T11:33:28;103729.69;;;4.36;53.26
65758;BME280;52495;52.208;5.158;2023-02-08T11:35:58;103720.44;;;4.38;52.86
65758;BME280;52495;52.208;5.158;2023-02-08T11:38:26;103706.28;;;4.45;52.98
65758;BME280;52495;52.208;5.158;2023-02-08T11:40:55;103712.44;;;4.49;52.80
65758;BME280;52495;52.208;5.158;2023-02-08T11:43:25;103720.53;;;4.56;52.43
65758;BME280;52495;52.208;5.158;2023-02-08T11:45:53;103712.41;;;4.64;53.23
65758;BME280;52495;52.208;5.158;2023-02-08T11:48:24;103707.59;;;4.70;52.74
65758;BME280;52495;52.208;5.158;2023-02-08T11:50:55;103698.69;;;4.78;52.91
65758;BME280;52495;52.208;5.158;2023-02-08T11:53:26;103706.69;;;4.84;52.14
65758;BME280;52495;52.208;5.158;2023-02-08T11:56:04;103695.25;;;4.94;51.31
65758;BME280;52495;52.208;5.158;2023-02-08T11:58:32;103698.06;;;4.99;51.71
65758;BME280;52495;52.208;5.158;2023-02-08T12:01:02;103693.09;;;5.02;49.12
65758;BME280;52495;52.208;5.158;2023-02-08T12:03:31;103693.63;;;5.13;50.16
65758;BME280;52495;52.208;5.158;2023-02-08T12:06:22;103682.75;;;5.17;48.85
65758;BME280;52495;52.208;5.158;2023-02-08T12:09:02;103673.63;;;5.22;49.91
65758;BME280;52495;52.208;5.158;2023-02-08T12:11:38;103668.84;;;5.28;49.84
65758;BME280;52495;52.208;5.158;2023-02-08T12:14:20;103666.56;;;5.35;50.76
65758;BME280;52495;52.208;5.158;2023-02-08T12:17:05;103657.44;;;5.40;50.60
65758;BME280;52495;52.208;5.158;2023-02-08T12:19:58;103653.56;;;5.48;48.98
65758;BME280;52495;52.208;5.158;2023-02-08T12:22:29;103651.47;;;5.57;48.31
65758;BME280;52495;52.208;5.158;2023-02-08T12:25:03;103644.09;;;5.64;48.94
65758;BME280;52495;52.208;5.158;2023-02-08T12:27:40;103635.56;;;5.65;46.39
65758;BME280;52495;52.208;5.158;2023-02-08T12:30:18;103628.34;;;5.74;48.37
65758;BME280;52495;52.208;5.158;2023-02-08T12:33:23;103624.00;;;5.73;44.10
65758;BME280;52495;52.208;5.158;2023-02-08T12:36:04;103619.25;;;5.81;44.46
65758;BME280;52495;52.208;5.158;2023-02-08T12:38:53;103617.47;;;5.80;43.48
65758;BME280;52495;52.208;5.158;2023-02-08T12:41:51;103613.31;;;5.82;45.05
65758;BME280;52495;52.208;5.158;2023-02-08T12:44:34;103609.28;;;5.87;44.54
65758;BME280;52495;52.208;5.158;2023-02-08T12:47:08;103609.41;;;5.90;44.10
65758;BME280;52495;52.208;5.158;2023-02-08T12:49:56;103606.19;;;5.94;44.25
65758;BME280;52495;52.208;5.158;2023-02-08T12:52:32;103604.53;;;5.95;44.15
65758;BME280;52495;52.208;5.158;2023-02-08T12:55:08;103601.41;;;6.00;44.94
65758;BME280;52495;52.208;5.158;2023-02-08T12:57:41;103597.44;;;6.07;44.42
65758;BME280;52495;52.208;5.158;2023-02-08T13:00:16;103586.56;;;6.13;45.21
65758;BME280;52495;52.208;5.158;2023-02-08T13:02:52;103591.91;;;6.17;45.41
65758;BME280;52495;52.208;5.158;2023-02-08T13:05:32;103587.91;;;6.24;43.91
65758;BME280;52495;52.208;5.158;2023-02-08T13:08:30;103580.50;;;6.30;44.75
65758;BME280;52495;52.208;5.158;2023-02-08T13:11:38;103575.72;;;6.38;44.46
65758;BME280;52495;52.208;5.158;2023-02-08T13:14:12;103569.03;;;6.42;44.17
65758;BME280;52495;52.208;5.158;2023-02-08T13:16:41;103560.81;;;6.49;44.44
65758;BME280;52495;52.208;5.158;2023-02-08T13:19:22;103566.06;;;6.52;42.26
65758;BME280;52495;52.208;5.158;2023-02-08T13:21:51;103557.63;;;6.55;43.45
65758;BME280;52495;52.208;5.158;2023-02-08T13:24:40;103551.88;;;6.60;42.42
65758;BME280;52495;52.208;5.158;2023-02-08T13:27:14;103551.97;;;6.62;42.54
65758;BME280;52495;52.208;5.158;2023-02-08T13:29:43;103555.56;;;6.67;42.45
65758;BME280;52495;52.208;5.158;2023-02-08T13:32:15;103545.53;;;6.72;42.31